sensor_id;sensor_type;location;lat;lon;timestamp;pressure;altitude;pressure_sealevel;temperature;humidity
83483;BME280;73420;32.678;-85.380;2023-12-20T00:00:08;99671.98;;;14.07;13.14
83483;BME280;73420;32.678;-85.380;2023-12-20T00:02:32;99672.44;;;14.20;13.48
83483;BME280;73420;32.678;-85.380;2023-12-20T00:04:58;99670.00;;;14.01;14.42
83483;BME280;73420;32.678;-85.380;2023-12-20T00:07:28;99664.53;;;13.48;15.30
83483;BME280;73420;32.678;-85.380;2023-12-20T00:09:49;99668.47;;;13.49;15.24
83483;BME280;73420;32.678;-85.380;2023-12-20T00:12:14;99673.04;;;13.77;13.76
83483;BME280;73420;32.678;-85.380;2023-12-20T00:14:40;99677.62;;;13.78;13.18
83483;BME280;73420;32.678;-85.380;2023-12-20T00:17:05;99673.53;;;13.79;13.30
83483;BME280;73420;32.678;-85.380;2023-12-20T00:19:31;99674.42;;;13.85;13.73
83483;BME280;73420;32.678;-85.380;2023-12-20T00:21:57;99675.58;;;13.52;13.29
83483;BME280;73420;32.678;-85.380;2023-12-20T00:24:23;99676.93;;;13.79;13.37
83483;BME280;73420;32.678;-85.380;2023-12-20T00:26:48;99681.75;;;13.81;13.04
83483;BME280;73420;32.678;-85.380;2023-12-20T00:29:14;99684.18;;;13.67;14.02
83483;BME280;73420;32.678;-85.380;2023-12-20T00:31:40;99685.70;;;13.37;14.64
83483;BME280;73420;32.678;-85.380;2023-12-20T00:34:05;99679.68;;;13.30;13.97
83483;BME280;73420;32.678;-85.380;2023-12-20T00:36:31;99675.27;;;13.27;14.08
83483;BME280;73420;32.678;-85.380;2023-12-20T00:38:56;99684.30;;;13.08;14.26
83483;BME280;73420;32.678;-85.380;2023-12-20T00:41:22;99684.87;;;13.04;14.78
83483;BME280;73420;32.678;-85.380;2023-12-20T00:43:49;99686.74;;;12.93;14.15
83483;BME280;73420;32.678;-85.380;2023-12-20T00:46:13;99694.07;;;12.98;15.04
83483;BME280;73420;32.678;-85.380;2023-12-20T00:48:39;99696.09;;;12.78;14.50
83483;BME280;73420;32.678;-85.380;2023-12-20T00:51:05;99695.87;;;12.92;13.90
83483;BME280;73420;32.678;-85.380;2023-12-20T00:53:30;99700.49;;;13.25;14.22
83483;BME280;73420;32.678;-85.380;2023-12-20T00:55:58;99704.10;;;13.17;14.20
83483;BME280;73420;32.678;-85.380;2023-12-20T00:58:22;99701.62;;;13.13;14.72
83483;BME280;73420;32.678;-85.380;2023-12-20T01:00:47;99697.70;;;13.15;14.35
83483;BME280;73420;32.678;-85.380;2023-12-20T01:03:13;99697.76;;;12.84;14.36
83483;BME280;73420;32.678;-85.380;2023-12-20T01:05:42;99698.48;;;12.88;15.80
83483;BME280;73420;32.678;-85.380;2023-12-20T01:08:07;99696.63;;;12.14;15.25
83483;BME280;73420;32.678;-85.380;2023-12-20T01:10:30;99697.19;;;12.24;15.10
83483;BME280;73420;32.678;-85.380;2023-12-20T01:12:56;99697.27;;;12.46;14.04
83483;BME280;73420;32.678;-85.380;2023-12-20T01:15:22;99694.30;;;12.63;15.46
83483;BME280;73420;32.678;-85.380;2023-12-20T01:17:47;99694.71;;;12.66;14.37
83483;BME280;73420;32.678;-85.380;2023-12-20T01:20:14;99701.61;;;12.68;14.79
83483;BME280;73420;32.678;-85.380;2023-12-20T01:22:39;99710.97;;;12.44;14.97
83483;BME280;73420;32.678;-85.380;2023-12-20T01:25:05;99711.85;;;12.80;14.39
83483;BME280;73420;32.678;-85.380;2023-12-20T01:27:30;99708.39;;;12.81;14.24
83483;BME280;73420;32.678;-85.380;2023-12-20T01:29:56;99709.05;;;12.58;14.70
83483;BME280;73420;32.678;-85.380;2023-12-20T01:32:22;99711.70;;;12.56;15.52
83483;BME280;73420;32.678;-85.380;2023-12-20T01:34:48;99709.58;;;12.54;14.61
83483;BME280;73420;32.678;-85.380;2023-12-20T01:37:13;99713.35;;;12.45;15.16
83483;BME280;73420;32.678;-85.380;2023-12-20T01:39:39;99713.28;;;12.38;15.89
83483;BME280;73420;32.678;-85.380;2023-12-20T01:42:05;99710.69;;;12.08;15.51
83483;BME280;73420;32.678;-85.380;2023-12-20T01:44:31;99709.18;;;12.22;14.85
83483;BME280;73420;32.678;-85.380;2023-12-20T01:46:56;99714.69;;;12.22;15.21
83483;BME280;73420;32.678;-85.380;2023-12-20T01:49:22;99718.37;;;12.25;15.19
83483;BME280;73420;32.678;-85.380;2023-12-20T01:51:48;99716.78;;;12.52;15.18
83483;BME280;73420;32.678;-85.380;2023-12-20T01:54:13;99715.11;;;11.98;15.91
83483;BME280;73420;32.678;-85.380;2023-12-20T01:56:40;99718.58;;;11.94;15.87
83483;BME280;73420;32.678;-85.380;2023-12-20T01:59:05;99724.52;;;11.92;15.58
83483;BME280;73420;32.678;-85.380;2023-12-20T02:01:31;99726.28;;;12.16;15.44
83483;BME280;73420;32.678;-85.380;2023-12-20T02:03:57;99729.73;;;12.05;16.67
83483;BME280;73420;32.678;-85.380;2023-12-20T02:06:23;99730.14;;;11.70;15.84
83483;BME280;73420;32.678;-85.380;2023-12-20T02:08:49;99728.69;;;11.79;15.99
83483;BME280;73420;32.678;-85.380;2023-12-20T02:11:14;99728.20;;;11.91;15.58
83483;BME280;73420;32.678;-85.380;2023-12-20T02:13:39;99735.38;;;11.97;16.59
83483;BME280;73420;32.678;-85.380;2023-12-20T02:16:05;99742.95;;;11.92;16.69
83483;BME280;73420;32.678;-85.380;2023-12-20T02:18:31;99749.70;;;12.00;15.70
83483;BME280;73420;32.678;-85.380;2023-12-20T02:20:58;99747.06;;;11.66;16.58
83483;BME280;73420;32.678;-85.380;2023-12-20T02:23:22;99750.03;;;11.63;17.44
83483;BME280;73420;32.678;-85.380;2023-12-20T02:25:48;99750.57;;;11.06;17.86
83483;BME280;73420;32.678;-85.380;2023-12-20T02:28:13;99753.87;;;10.97;18.15
83483;BME280;73420;32.678;-85.380;2023-12-20T02:30:39;99750.51;;;11.16;17.50
83483;BME280;73420;32.678;-85.380;2023-12-20T02:33:08;99746.53;;;11.17;17.36
83483;BME280;73420;32.678;-85.380;2023-12-20T02:35:31;99742.55;;;10.83;17.29
83483;BME280;73420;32.678;-85.380;2023-12-20T02:37:56;99744.36;;;10.81;16.92
83483;BME280;73420;32.678;-85.380;2023-12-20T02:40:22;99743.85;;;11.21;16.43
83483;BME280;73420;32.678;-85.380;2023-12-20T02:42:48;99736.75;;;11.28;16.51
83483;BME280;73420;32.678;-85.380;2023-12-20T02:45:16;99738.47;;;11.40;15.91
83483;BME280;73420;32.678;-85.380;2023-12-20T02:47:39;99742.85;;;11.07;16.24
83483;BME280;73420;32.678;-85.380;2023-12-20T02:50:06;99746.33;;;11.13;17.28
83483;BME280;73420;32.678;-85.380;2023-12-20T02:52:31;99745.46;;;11.10;16.96
83483;BME280;73420;32.678;-85.380;2023-12-20T02:54:57;99747.83;;;11.17;16.84
83483;BME280;73420;32.678;-85.380;2023-12-20T02:57:24;99747.06;;;11.13;16.85
83483;BME280;73420;32.678;-85.380;2023-12-20T02:59:48;99748.44;;;11.03;16.89
83483;BME280;73420;32.678;-85.380;2023-12-20T03:02:14;99750.98;;;10.91;16.83
83483;BME280;73420;32.678;-85.380;2023-12-20T03:04:40;99749.67;;;11.10;16.80
83483;BME280;73420;32.678;-85.380;2023-12-20T03:07:05;99751.14;;;10.96;16.65
83483;BME280;73420;32.678;-85.380;2023-12-20T03:09:36;99754.59;;;10.88;16.89
83483;BME280;73420;32.678;-85.380;2023-12-20T03:11:57;99756.63;;;10.91;16.76
83483;BME280;73420;32.678;-85.380;2023-12-20T03:14:22;99757.03;;;10.86;17.79
83483;BME280;73420;32.678;-85.380;2023-12-20T03:16:49;99755.52;;;10.64;17.78
83483;BME280;73420;32.678;-85.380;2023-12-20T03:19:14;99757.26;;;10.58;16.95
83483;BME280;73420;32.678;-85.380;2023-12-20T03:21:40;99760.90;;;11.28;16.92
83483;BME280;73420;32.678;-85.380;2023-12-20T03:24:05;99768.49;;;10.81;16.87
83483;BME280;73420;32.678;-85.380;2023-12-20T03:26:31;99772.84;;;10.75;17.80
83483;BME280;73420;32.678;-85.380;2023-12-20T03:28:57;99779.08;;;10.83;16.91
83483;BME280;73420;32.678;-85.380;2023-12-20T03:31:22;99783.60;;;11.23;18.03
83483;BME280;73420;32.678;-85.380;2023-12-20T03:33:51;99788.59;;;10.75;17.01
83483;BME280;73420;32.678;-85.380;2023-12-20T03:36:14;99796.66;;;10.58;17.31
83483;BME280;73420;32.678;-85.380;2023-12-20T03:38:40;99796.77;;;11.12;17.48
83483;BME280;73420;32.678;-85.380;2023-12-20T03:41:06;99798.31;;;10.93;17.32
83483;BME280;73420;32.678;-85.380;2023-12-20T03:43:31;99798.40;;;11.01;17.05
83483;BME280;73420;32.678;-85.380;2023-12-20T03:45:57;99800.04;;;10.45;17.31
83483;BME280;73420;32.678;-85.380;2023-12-20T03:48:23;99798.49;;;10.68;16.75
83483;BME280;73420;32.678;-85.380;2023-12-20T03:50:48;99799.29;;;10.39;17.17
83483;BME280;73420;32.678;-85.380;2023-12-20T03:53:14;99797.03;;;10.51;17.93
83483;BME280;73420;32.678;-85.380;2023-12-20T03:55:40;99798.90;;;10.48;17.34
83483;BME280;73420;32.678;-85.380;2023-12-20T03:58:06;99805.08;;;10.73;16.93
83483;BME280;73420;32.678;-85.380;2023-12-20T04:00:31;99811.56;;;10.50;17.43
83483;BME280;73420;32.678;-85.380;2023-12-20T04:02:57;99814.43;;;10.42;17.26
83483;BME280;73420;32.678;-85.380;2023-12-20T04:05:23;99812.55;;;10.42;17.35
83483;BME280;73420;32.678;-85.380;2023-12-20T04:07:49;99817.79;;;10.23;17.22
83483;BME280;73420;32.678;-85.380;2023-12-20T04:10:15;99821.00;;;10.30;17.94
83483;BME280;73420;32.678;-85.380;2023-12-20T04:12:40;99819.73;;;10.51;17.02
83483;BME280;73420;32.678;-85.380;2023-12-20T04:15:06;99822.79;;;10.10;16.89
83483;BME280;73420;32.678;-85.380;2023-12-20T04:17:31;99822.45;;;10.46;17.26
83483;BME280;73420;32.678;-85.380;2023-12-20T04:19:57;99825.22;;;10.42;17.56
83483;BME280;73420;32.678;-85.380;2023-12-20T04:22:23;99826.22;;;10.34;17.84
83483;BME280;73420;32.678;-85.380;2023-12-20T04:24:48;99827.62;;;10.03;18.37
83483;BME280;73420;32.678;-85.380;2023-12-20T04:27:14;99833.57;;;10.13;18.14
83483;BME280;73420;32.678;-85.380;2023-12-20T04:29:40;99837.90;;;10.17;17.62
83483;BME280;73420;32.678;-85.380;2023-12-20T04:32:06;99841.90;;;10.08;17.68
83483;BME280;73420;32.678;-85.380;2023-12-20T04:34:33;99843.34;;;10.08;17.70
83483;BME280;73420;32.678;-85.380;2023-12-20T04:36:57;99845.57;;;10.08;17.47
83483;BME280;73420;32.678;-85.380;2023-12-20T04:39:22;99853.18;;;10.26;17.82
83483;BME280;73420;32.678;-85.380;2023-12-20T04:41:48;99855.32;;;10.20;17.90
83483;BME280;73420;32.678;-85.380;2023-12-20T04:44:14;99861.56;;;9.95;17.92
83483;BME280;73420;32.678;-85.380;2023-12-20T04:46:40;99864.28;;;10.13;18.12
83483;BME280;73420;32.678;-85.380;2023-12-20T04:49:05;99863.17;;;9.85;18.06
83483;BME280;73420;32.678;-85.380;2023-12-20T04:51:33;99868.41;;;9.85;17.65
83483;BME280;73420;32.678;-85.380;2023-12-20T04:53:57;99871.36;;;9.86;17.90
83483;BME280;73420;32.678;-85.380;2023-12-20T04:56:22;99871.20;;;9.72;18.93
83483;BME280;73420;32.678;-85.380;2023-12-20T04:58:49;99873.09;;;9.79;17.80
83483;BME280;73420;32.678;-85.380;2023-12-20T05:01:14;99873.22;;;10.11;18.04
83483;BME280;73420;32.678;-85.380;2023-12-20T05:03:40;99873.89;;;9.94;17.99
83483;BME280;73420;32.678;-85.380;2023-12-20T05:06:06;99875.04;;;10.14;18.02
83483;BME280;73420;32.678;-85.380;2023-12-20T05:08:31;99875.20;;;9.93;17.85
83483;BME280;73420;32.678;-85.380;2023-12-20T05:10:57;99872.65;;;9.97;18.29
83483;BME280;73420;32.678;-85.380;2023-12-20T05:13:22;99874.95;;;9.79;17.99
83483;BME280;73420;32.678;-85.380;2023-12-20T05:15:47;99872.49;;;10.06;18.55
83483;BME280;73420;32.678;-85.380;2023-12-20T05:18:13;99870.51;;;9.38;19.40
83483;BME280;73420;32.678;-85.380;2023-12-20T05:20:39;99867.46;;;9.57;18.89
83483;BME280;73420;32.678;-85.380;2023-12-20T05:23:04;99862.25;;;9.78;18.10
83483;BME280;73420;32.678;-85.380;2023-12-20T05:25:29;99859.67;;;9.65;18.60
83483;BME280;73420;32.678;-85.380;2023-12-20T05:27:55;99856.73;;;9.74;18.47
83483;BME280;73420;32.678;-85.380;2023-12-20T05:30:21;99853.68;;;9.90;18.85
83483;BME280;73420;32.678;-85.380;2023-12-20T05:32:46;99854.46;;;9.93;18.41
83483;BME280;73420;32.678;-85.380;2023-12-20T05:35:12;99852.97;;;9.71;18.30
83483;BME280;73420;32.678;-85.380;2023-12-20T05:37:37;99856.16;;;9.32;19.20
83483;BME280;73420;32.678;-85.380;2023-12-20T05:40:03;99854.49;;;9.37;18.89
83483;BME280;73420;32.678;-85.380;2023-12-20T05:42:28;99844.91;;;9.41;18.53
83483;BME280;73420;32.678;-85.380;2023-12-20T05:44:54;99846.42;;;9.50;18.54
83483;BME280;73420;32.678;-85.380;2023-12-20T05:47:19;99843.28;;;9.49;18.87
83483;BME280;73420;32.678;-85.380;2023-12-20T05:49:45;99845.40;;;9.64;18.84
83483;BME280;73420;32.678;-85.380;2023-12-20T05:52:10;99845.72;;;9.63;18.22
83483;BME280;73420;32.678;-85.380;2023-12-20T05:54:35;99844.06;;;9.59;18.41
83483;BME280;73420;32.678;-85.380;2023-12-20T05:57:01;99838.71;;;9.45;18.46
83483;BME280;73420;32.678;-85.380;2023-12-20T05:59:31;99836.90;;;9.63;18.47
83483;BME280;73420;32.678;-85.380;2023-12-20T06:01:52;99839.88;;;9.73;18.97
83483;BME280;73420;32.678;-85.380;2023-12-20T06:04:17;99844.79;;;9.02;18.45
83483;BME280;73420;32.678;-85.380;2023-12-20T06:06:43;99847.64;;;9.63;18.60
83483;BME280;73420;32.678;-85.380;2023-12-20T06:09:08;99844.08;;;9.34;18.68
83483;BME280;73420;32.678;-85.380;2023-12-20T06:11:36;99848.17;;;9.13;18.81
83483;BME280;73420;32.678;-85.380;2023-12-20T06:14:00;99848.96;;;9.53;18.76
83483;BME280;73420;32.678;-85.380;2023-12-20T06:16:25;99856.42;;;9.36;18.35
83483;BME280;73420;32.678;-85.380;2023-12-20T06:18:51;99853.80;;;9.61;18.22
83483;BME280;73420;32.678;-85.380;2023-12-20T06:21:16;99852.03;;;9.55;18.39
83483;BME280;73420;32.678;-85.380;2023-12-20T06:23:42;99854.07;;;9.63;18.33
83483;BME280;73420;32.678;-85.380;2023-12-20T06:26:08;99854.43;;;9.46;18.52
83483;BME280;73420;32.678;-85.380;2023-12-20T06:28:35;99851.19;;;9.44;18.67
83483;BME280;73420;32.678;-85.380;2023-12-20T06:30:59;99849.33;;;9.30;18.86
83483;BME280;73420;32.678;-85.380;2023-12-20T06:33:25;99851.70;;;9.28;19.36
83483;BME280;73420;32.678;-85.380;2023-12-20T06:35:51;99852.38;;;9.17;19.25
83483;BME280;73420;32.678;-85.380;2023-12-20T06:38:18;99852.13;;;9.14;18.77
83483;BME280;73420;32.678;-85.380;2023-12-20T06:40:42;99850.51;;;9.59;18.07
83483;BME280;73420;32.678;-85.380;2023-12-20T06:43:08;99846.99;;;9.48;18.79
83483;BME280;73420;32.678;-85.380;2023-12-20T06:45:33;99840.08;;;9.39;19.53
83483;BME280;73420;32.678;-85.380;2023-12-20T06:48:03;99841.87;;;9.35;19.21
83483;BME280;73420;32.678;-85.380;2023-12-20T06:50:25;99838.75;;;9.24;18.82
83483;BME280;73420;32.678;-85.380;2023-12-20T06:52:51;99836.62;;;9.43;19.05
83483;BME280;73420;32.678;-85.380;2023-12-20T06:55:17;99832.42;;;9.53;18.91
83483;BME280;73420;32.678;-85.380;2023-12-20T06:57:42;99829.43;;;9.58;18.69
83483;BME280;73420;32.678;-85.380;2023-12-20T07:00:11;99832.07;;;9.71;18.34
83483;BME280;73420;32.678;-85.380;2023-12-20T07:02:33;99837.69;;;9.76;18.35
83483;BME280;73420;32.678;-85.380;2023-12-20T07:04:58;99834.70;;;9.68;18.68
83483;BME280;73420;32.678;-85.380;2023-12-20T07:07:24;99832.63;;;9.40;18.60
83483;BME280;73420;32.678;-85.380;2023-12-20T07:09:50;99834.21;;;9.41;18.48
83483;BME280;73420;32.678;-85.380;2023-12-20T07:12:16;99833.93;;;9.62;18.40
83483;BME280;73420;32.678;-85.380;2023-12-20T07:14:41;99834.86;;;9.59;18.49
83483;BME280;73420;32.678;-85.380;2023-12-20T07:17:07;99837.17;;;9.50;18.82
83483;BME280;73420;32.678;-85.380;2023-12-20T07:19:32;99838.82;;;9.18;18.56
83483;BME280;73420;32.678;-85.380;2023-12-20T07:21:57;99846.23;;;9.08;18.53
83483;BME280;73420;32.678;-85.380;2023-12-20T07:24:26;99848.21;;;9.24;19.06
83483;BME280;73420;32.678;-85.380;2023-12-20T07:26:49;99850.29;;;9.58;18.74
83483;BME280;73420;32.678;-85.380;2023-12-20T07:29:14;99854.31;;;9.47;18.19
83483;BME280;73420;32.678;-85.380;2023-12-20T07:31:40;99860.46;;;9.63;18.80
83483;BME280;73420;32.678;-85.380;2023-12-20T07:34:05;99865.92;;;9.56;18.59
83483;BME280;73420;32.678;-85.380;2023-12-20T07:36:33;99871.91;;;9.12;18.97
83483;BME280;73420;32.678;-85.380;2023-12-20T07:38:56;99871.70;;;9.30;18.99
83483;BME280;73420;32.678;-85.380;2023-12-20T07:41:22;99878.76;;;9.03;18.94
83483;BME280;73420;32.678;-85.380;2023-12-20T07:43:47;99881.73;;;9.40;19.67
83483;BME280;73420;32.678;-85.380;2023-12-20T07:46:13;99881.25;;;9.04;19.29
83483;BME280;73420;32.678;-85.380;2023-12-20T07:48:40;99881.71;;;8.89;19.70
83483;BME280;73420;32.678;-85.380;2023-12-20T07:51:05;99882.46;;;9.09;19.19
83483;BME280;73420;32.678;-85.380;2023-12-20T07:53:29;99880.83;;;9.23;19.20
83483;BME280;73420;32.678;-85.380;2023-12-20T07:55:55;99881.72;;;9.21;18.95
83483;BME280;73420;32.678;-85.380;2023-12-20T07:58:20;99886.58;;;8.91;19.08
83483;BME280;73420;32.678;-85.380;2023-12-20T08:00:45;99888.36;;;9.13;18.83
83483;BME280;73420;32.678;-85.380;2023-12-20T08:03:10;99891.38;;;9.08;19.36
83483;BME280;73420;32.678;-85.380;2023-12-20T08:05:36;99891.83;;;8.85;19.67
83483;BME280;73420;32.678;-85.380;2023-12-20T08:08:01;99890.28;;;9.09;19.22
83483;BME280;73420;32.678;-85.380;2023-12-20T08:10:26;99885.28;;;9.07;19.43
83483;BME280;73420;32.678;-85.380;2023-12-20T08:12:53;99885.47;;;8.94;19.72
83483;BME280;73420;32.678;-85.380;2023-12-20T08:15:16;99881.14;;;8.84;19.90
83483;BME280;73420;32.678;-85.380;2023-12-20T08:17:41;99874.01;;;8.64;19.46
83483;BME280;73420;32.678;-85.380;2023-12-20T08:20:08;99869.05;;;8.70;19.32
83483;BME280;73420;32.678;-85.380;2023-12-20T08:22:32;99866.81;;;8.83;19.43
83483;BME280;73420;32.678;-85.380;2023-12-20T08:24:58;99869.98;;;9.07;18.96
83483;BME280;73420;32.678;-85.380;2023-12-20T08:27:23;99868.66;;;8.93;18.86
83483;BME280;73420;32.678;-85.380;2023-12-20T08:29:49;99872.33;;;8.90;19.06
83483;BME280;73420;32.678;-85.380;2023-12-20T08:32:15;99874.17;;;8.73;19.17
83483;BME280;73420;32.678;-85.380;2023-12-20T08:34:40;99872.36;;;9.01;18.97
83483;BME280;73420;32.678;-85.380;2023-12-20T08:37:06;99868.79;;;9.24;19.57
83483;BME280;73420;32.678;-85.380;2023-12-20T08:39:31;99869.62;;;8.73;19.08
83483;BME280;73420;32.678;-85.380;2023-12-20T08:41:56;99868.08;;;8.58;19.39
83483;BME280;73420;32.678;-85.380;2023-12-20T08:44:22;99864.43;;;8.48;19.47
83483;BME280;73420;32.678;-85.380;2023-12-20T08:46:48;99864.04;;;8.47;19.62
83483;BME280;73420;32.678;-85.380;2023-12-20T08:49:13;99861.51;;;8.62;19.68
83483;BME280;73420;32.678;-85.380;2023-12-20T08:51:38;99851.10;;;8.75;19.61
83483;BME280;73420;32.678;-85.380;2023-12-20T08:54:04;99846.87;;;8.22;19.85
83483;BME280;73420;32.678;-85.380;2023-12-20T08:56:29;99848.42;;;8.09;19.98
83483;BME280;73420;32.678;-85.380;2023-12-20T08:58:55;99851.07;;;8.55;19.83
83483;BME280;73420;32.678;-85.380;2023-12-20T09:01:21;99852.33;;;8.46;19.87
83483;BME280;73420;32.678;-85.380;2023-12-20T09:03:46;99856.38;;;8.46;19.61
83483;BME280;73420;32.678;-85.380;2023-12-20T09:06:12;99857.24;;;9.03;19.24
83483;BME280;73420;32.678;-85.380;2023-12-20T09:08:37;99851.26;;;8.43;20.09
83483;BME280;73420;32.678;-85.380;2023-12-20T09:11:03;99847.92;;;8.48;19.82
83483;BME280;73420;32.678;-85.380;2023-12-20T09:13:28;99839.24;;;8.77;19.85
83483;BME280;73420;32.678;-85.380;2023-12-20T09:15:53;99837.30;;;8.76;19.83
83483;BME280;73420;32.678;-85.380;2023-12-20T09:18:19;99834.57;;;8.36;19.97
83483;BME280;73420;32.678;-85.380;2023-12-20T09:20:44;99835.60;;;8.43;19.89
83483;BME280;73420;32.678;-85.380;2023-12-20T09:23:10;99835.03;;;8.72;20.38
83483;BME280;73420;32.678;-85.380;2023-12-20T09:25:36;99834.63;;;8.32;20.21
83483;BME280;73420;32.678;-85.380;2023-12-20T09:28:00;99834.62;;;8.35;20.17
83483;BME280;73420;32.678;-85.380;2023-12-20T09:30:26;99838.07;;;8.53;19.84
83483;BME280;73420;32.678;-85.380;2023-12-20T09:32:51;99837.75;;;8.67;20.05
83483;BME280;73420;32.678;-85.380;2023-12-20T09:35:17;99837.06;;;9.03;20.03
83483;BME280;73420;32.678;-85.380;2023-12-20T09:37:46;99837.75;;;8.47;20.29
83483;BME280;73420;32.678;-85.380;2023-12-20T09:40:10;99836.78;;;8.76;19.98
83483;BME280;73420;32.678;-85.380;2023-12-20T09:42:42;99835.66;;;8.76;19.85
83483;BME280;73420;32.678;-85.380;2023-12-20T09:45:02;99847.03;;;9.02;20.13
83483;BME280;73420;32.678;-85.380;2023-12-20T09:47:25;99851.53;;;8.51;19.67
83483;BME280;73420;32.678;-85.380;2023-12-20T09:49:50;99862.04;;;8.58;19.67
83483;BME280;73420;32.678;-85.380;2023-12-20T09:52:16;99866.22;;;8.67;19.20
83483;BME280;73420;32.678;-85.380;2023-12-20T09:54:42;99863.16;;;8.80;19.55
83483;BME280;73420;32.678;-85.380;2023-12-20T09:57:06;99851.69;;;8.81;20.24
83483;BME280;73420;32.678;-85.380;2023-12-20T09:59:32;99850.41;;;9.05;20.08
83483;BME280;73420;32.678;-85.380;2023-12-20T10:01:58;99855.79;;;8.94;19.37
83483;BME280;73420;32.678;-85.380;2023-12-20T10:04:23;99861.38;;;8.83;19.15
83483;BME280;73420;32.678;-85.380;2023-12-20T10:06:49;99858.53;;;8.91;19.09
83483;BME280;73420;32.678;-85.380;2023-12-20T10:09:14;99860.54;;;8.73;20.20
83483;BME280;73420;32.678;-85.380;2023-12-20T10:11:39;99864.57;;;8.99;19.51
83483;BME280;73420;32.678;-85.380;2023-12-20T10:14:06;99863.76;;;9.16;20.67
83483;BME280;73420;32.678;-85.380;2023-12-20T10:16:31;99865.39;;;8.44;21.44
83483;BME280;73420;32.678;-85.380;2023-12-20T10:18:56;99863.38;;;8.77;21.47
83483;BME280;73420;32.678;-85.380;2023-12-20T10:21:22;99866.23;;;8.15;21.26
83483;BME280;73420;32.678;-85.380;2023-12-20T10:23:46;99866.70;;;8.60;21.29
83483;BME280;73420;32.678;-85.380;2023-12-20T10:26:19;99871.98;;;8.68;21.22
83483;BME280;73420;32.678;-85.380;2023-12-20T10:28:37;99876.58;;;8.63;20.54
83483;BME280;73420;32.678;-85.380;2023-12-20T10:31:03;99881.34;;;8.11;20.51
83483;BME280;73420;32.678;-85.380;2023-12-20T10:33:30;99876.76;;;8.23;21.05
83483;BME280;73420;32.678;-85.380;2023-12-20T10:35:55;99875.58;;;8.29;21.36
83483;BME280;73420;32.678;-85.380;2023-12-20T10:38:20;99883.94;;;8.41;20.76
83483;BME280;73420;32.678;-85.380;2023-12-20T10:40:46;99890.44;;;8.11;21.19
83483;BME280;73420;32.678;-85.380;2023-12-20T10:43:11;99899.20;;;7.69;21.83
83483;BME280;73420;32.678;-85.380;2023-12-20T10:45:37;99907.61;;;8.07;21.98
83483;BME280;73420;32.678;-85.380;2023-12-20T10:48:03;99909.85;;;8.03;22.19
83483;BME280;73420;32.678;-85.380;2023-12-20T10:50:28;99913.43;;;8.07;21.64
83483;BME280;73420;32.678;-85.380;2023-12-20T10:52:54;99915.90;;;8.06;21.69
83483;BME280;73420;32.678;-85.380;2023-12-20T10:55:19;99923.82;;;7.74;22.09
83483;BME280;73420;32.678;-85.380;2023-12-20T10:57:46;99928.83;;;7.81;22.57
83483;BME280;73420;32.678;-85.380;2023-12-20T11:00:14;99929.29;;;7.70;21.92
83483;BME280;73420;32.678;-85.380;2023-12-20T11:02:39;99930.90;;;7.66;21.82
83483;BME280;73420;32.678;-85.380;2023-12-20T11:05:10;99938.70;;;7.77;21.39
83483;BME280;73420;32.678;-85.380;2023-12-20T11:07:32;99940.10;;;8.16;21.10
83483;BME280;73420;32.678;-85.380;2023-12-20T11:09:58;99946.21;;;7.81;21.51
83483;BME280;73420;32.678;-85.380;2023-12-20T11:12:22;99953.58;;;7.64;22.38
83483;BME280;73420;32.678;-85.380;2023-12-20T11:14:46;99950.49;;;7.67;21.85
83483;BME280;73420;32.678;-85.380;2023-12-20T11:17:10;99951.13;;;7.79;21.27
83483;BME280;73420;32.678;-85.380;2023-12-20T11:19:38;99959.02;;;7.59;21.42
83483;BME280;73420;32.678;-85.380;2023-12-20T11:22:00;99961.00;;;7.73;20.97
83483;BME280;73420;32.678;-85.380;2023-12-20T11:24:26;99967.31;;;7.66;21.22
83483;BME280;73420;32.678;-85.380;2023-12-20T11:26:55;99973.29;;;7.65;21.07
83483;BME280;73420;32.678;-85.380;2023-12-20T11:29:29;99978.17;;;8.00;20.94
83483;BME280;73420;32.678;-85.380;2023-12-20T11:31:44;99982.88;;;7.70;20.94
83483;BME280;73420;32.678;-85.380;2023-12-20T11:34:13;99987.22;;;7.62;21.29
83483;BME280;73420;32.678;-85.380;2023-12-20T11:36:33;99991.18;;;7.32;21.59
83483;BME280;73420;32.678;-85.380;2023-12-20T11:38:59;99987.79;;;7.59;21.80
83483;BME280;73420;32.678;-85.380;2023-12-20T11:41:24;99988.07;;;7.55;21.85
83483;BME280;73420;32.678;-85.380;2023-12-20T11:43:53;99988.86;;;7.55;21.56
83483;BME280;73420;32.678;-85.380;2023-12-20T11:46:15;99995.91;;;7.41;21.75
83483;BME280;73420;32.678;-85.380;2023-12-20T11:48:44;100001.08;;;7.74;21.16
83483;BME280;73420;32.678;-85.380;2023-12-20T11:51:12;100002.38;;;7.52;21.04
83483;BME280;73420;32.678;-85.380;2023-12-20T11:53:32;100006.23;;;7.67;21.13
83483;BME280;73420;32.678;-85.380;2023-12-20T11:55:58;100017.83;;;7.66;21.04
83483;BME280;73420;32.678;-85.380;2023-12-20T11:58:23;100019.95;;;7.58;21.22
83483;BME280;73420;32.678;-85.380;2023-12-20T12:00:49;100012.52;;;7.54;21.15
83483;BME280;73420;32.678;-85.380;2023-12-20T12:03:15;100011.10;;;7.63;21.17
83483;BME280;73420;32.678;-85.380;2023-12-20T12:05:39;100018.50;;;7.81;21.31
83483;BME280;73420;32.678;-85.380;2023-12-20T12:08:05;100024.45;;;7.78;21.05
83483;BME280;73420;32.678;-85.380;2023-12-20T12:10:30;100032.55;;;7.34;21.21
83483;BME280;73420;32.678;-85.380;2023-12-20T12:12:55;100040.17;;;7.54;21.40
83483;BME280;73420;32.678;-85.380;2023-12-20T12:15:21;100055.17;;;7.68;21.03
83483;BME280;73420;32.678;-85.380;2023-12-20T12:17:53;100063.18;;;7.27;21.57
83483;BME280;73420;32.678;-85.380;2023-12-20T12:20:12;100067.86;;;7.49;21.39
83483;BME280;73420;32.678;-85.380;2023-12-20T12:22:37;100075.01;;;7.57;21.24
83483;BME280;73420;32.678;-85.380;2023-12-20T12:25:11;100089.57;;;7.46;21.46
83483;BME280;73420;32.678;-85.380;2023-12-20T12:27:30;100088.48;;;7.61;21.26
83483;BME280;73420;32.678;-85.380;2023-12-20T12:30:03;100087.20;;;7.46;21.48
83483;BME280;73420;32.678;-85.380;2023-12-20T12:32:19;100089.93;;;7.41;21.51
83483;BME280;73420;32.678;-85.380;2023-12-20T12:34:45;100097.67;;;7.63;21.99